createdAt,value
2023-08-09T00:00:33.701Z,65.38
2023-08-09T00:03:01.796Z,62.60
2023-08-09T00:05:29.504Z,65.18
2023-08-09T00:07:56.831Z,65.82
2023-08-09T00:10:24.509Z,64.00
2023-08-09T00:12:52.431Z,67.38
2023-08-09T00:15:19.815Z,66.53
2023-08-09T00:17:47.750Z,66.03
2023-08-09T00:20:16.060Z,64.80
2023-08-09T00:22:44.079Z,64.41
2023-08-09T00:25:14.965Z,66.07
2023-08-09T00:27:43.525Z,66.24
2023-08-09T00:30:11.685Z,64.41
2023-08-09T00:32:40.439Z,63.83
2023-08-09T00:35:08.460Z,65.17
2023-08-09T00:37:36.887Z,64.00
2023-08-09T00:40:13.914Z,64.03
2023-08-09T00:42:42.460Z,64.34
2023-08-09T00:45:10.650Z,63.74
2023-08-09T00:47:38.539Z,63.23
2023-08-09T00:50:06.620Z,64.33
2023-08-09T00:52:34.438Z,67.01
2023-08-09T00:55:02.324Z,68.94
2023-08-09T00:57:31.503Z,68.31
2023-08-09T00:59:59.526Z,68.26
2023-08-09T01:02:27.218Z,66.58
2023-08-09T01:04:54.827Z,67.07
2023-08-09T01:07:32.561Z,67.39
2023-08-09T01:10:16.744Z,65.83
2023-08-09T01:12:51.348Z,63.50
2023-08-09T01:15:21.089Z,64.42
2023-08-09T01:17:50.019Z,66.66
2023-08-09T01:20:18.360Z,65.25
2023-08-09T01:22:52.035Z,65.76
2023-08-09T01:25:20.086Z,67.55
2023-08-09T01:27:50.130Z,66.41
2023-08-09T01:30:17.621Z,65.38
2023-08-09T01:32:45.425Z,68.21
2023-08-09T01:35:13.125Z,69.59
2023-08-09T01:37:48.357Z,67.84
2023-08-09T01:40:17.300Z,67.26
2023-08-09T01:42:44.990Z,68.64
2023-08-09T01:45:13.409Z,67.44
2023-08-09T01:47:43.008Z,66.76
2023-08-09T01:50:22.019Z,68.49
2023-08-09T01:52:50.179Z,68.84
2023-08-09T01:55:19.329Z,68.59
2023-08-09T01:57:48.149Z,68.00
2023-08-09T02:00:20.515Z,66.26
2023-08-09T02:02:49.830Z,67.34
2023-08-09T02:05:17.893Z,68.11
2023-08-09T02:07:45.355Z,67.67
2023-08-09T02:10:13.558Z,67.70
2023-08-09T02:12:41.728Z,65.77
2023-08-09T02:15:09.906Z,67.38
2023-08-09T02:17:37.926Z,67.38
2023-08-09T02:20:08.048Z,66.61
2023-08-09T02:22:38.820Z,70.10
2023-08-09T02:25:08.293Z,68.95
2023-08-09T02:27:35.841Z,69.35
2023-08-09T02:30:04.684Z,69.74
2023-08-09T02:32:35.259Z,67.04
2023-08-09T02:35:03.865Z,65.64
2023-08-09T02:37:31.843Z,68.78
2023-08-09T02:40:00.475Z,69.57
2023-08-09T02:42:28.011Z,68.63
2023-08-09T02:44:55.774Z,67.63
2023-08-09T02:47:23.335Z,66.99
2023-08-09T02:49:51.307Z,66.97
2023-08-09T02:52:20.466Z,67.67
2023-08-09T02:54:48.872Z,69.53
2023-08-09T02:57:16.624Z,68.58
2023-08-09T02:59:44.418Z,71.20
2023-08-09T03:02:11.906Z,70.78
2023-08-09T03:04:39.561Z,70.73
2023-08-09T03:07:07.261Z,70.91
2023-08-09T03:09:36.038Z,70.48
2023-08-09T03:12:03.883Z,70.46
2023-08-09T03:14:31.655Z,68.75
2023-08-09T03:16:59.143Z,67.20
2023-08-09T03:19:27.069Z,68.35
2023-08-09T03:21:54.782Z,68.30
2023-08-09T03:24:22.287Z,69.37
2023-08-09T03:26:49.863Z,67.04
2023-08-09T03:29:17.741Z,67.60
2023-08-09T03:31:46.050Z,69.31
2023-08-09T03:34:13.739Z,69.93
2023-08-09T03:36:41.510Z,70.30
2023-08-09T03:39:09.283Z,69.36
2023-08-09T03:41:36.726Z,69.06
2023-08-09T03:44:05.354Z,67.80
2023-08-09T03:46:33.024Z,68.88
2023-08-09T03:49:02.256Z,70.14
2023-08-09T03:51:30.845Z,69.13
2023-08-09T03:53:58.532Z,70.23
2023-08-09T03:56:26.080Z,68.42
2023-08-09T03:58:53.871Z,69.70
2023-08-09T04:01:21.532Z,71.04
2023-08-09T04:03:49.378Z,68.92
2023-08-09T04:06:16.809Z,67.66
2023-08-09T04:08:45.242Z,66.21
2023-08-09T04:11:13.055Z,65.60
2023-08-09T04:13:42.455Z,67.67
2023-08-09T04:16:10.902Z,69.81
2023-08-09T04:18:39.197Z,69.19
2023-08-09T04:21:08.024Z,68.15
2023-08-09T04:23:35.503Z,68.01
2023-08-09T04:26:04.674Z,68.21
2023-08-09T04:28:32.193Z,69.46
2023-08-09T04:30:59.629Z,69.11
2023-08-09T04:33:28.185Z,69.54
2023-08-09T04:35:55.594Z,69.84
2023-08-09T04:38:23.078Z,67.73
2023-08-09T04:40:50.801Z,69.38
2023-08-09T04:43:18.477Z,69.56
2023-08-09T04:45:45.993Z,68.58
2023-08-09T04:48:18.383Z,69.49
2023-08-09T04:50:45.992Z,70.29
2023-08-09T04:53:13.708Z,69.93
2023-08-09T04:55:41.190Z,69.52
2023-08-09T04:58:09.389Z,71.28
2023-08-09T05:00:37.186Z,70.04
2023-08-09T05:03:06.177Z,70.07
2023-08-09T05:05:33.686Z,68.76
2023-08-09T05:08:01.430Z,68.87
2023-08-09T05:10:28.861Z,68.38
2023-08-09T05:12:56.554Z,69.45
2023-08-09T05:15:24.344Z,67.29
2023-08-09T05:17:51.803Z,68.10
2023-08-09T05:20:19.285Z,68.83
2023-08-09T05:22:47.014Z,68.73
2023-08-09T05:25:14.484Z,68.10
2023-08-09T05:27:41.965Z,68.91
2023-08-09T05:30:10.125Z,68.72
2023-08-09T05:32:37.642Z,67.44
2023-08-09T05:35:05.576Z,67.41
2023-08-09T05:37:33.397Z,68.15
2023-08-09T05:40:00.795Z,68.31
2023-08-09T05:42:28.247Z,68.66
2023-08-09T05:44:56.010Z,67.44
2023-08-09T05:47:23.610Z,67.05
2023-08-09T05:49:51.426Z,68.04
2023-08-09T05:52:19.158Z,67.46
2023-08-09T05:54:49.438Z,67.81
2023-08-09T05:57:17.149Z,68.35
2023-08-09T05:59:44.920Z,67.84
2023-08-09T06:02:12.376Z,67.38
2023-08-09T06:04:40.151Z,66.42
2023-08-09T06:07:08.336Z,66.16
2023-08-09T06:09:35.785Z,66.04
2023-08-09T06:12:06.887Z,64.87
2023-08-09T06:14:35.015Z,64.00
2023-08-09T06:17:03.347Z,64.85
2023-08-09T06:19:31.241Z,64.02
2023-08-09T06:21:58.935Z,63.34
2023-08-09T06:24:26.635Z,62.52
2023-08-09T06:26:55.589Z,61.65
2023-08-09T06:29:23.101Z,60.62
2023-08-09T06:31:51.641Z,61.98
2023-08-09T06:34:19.360Z,63.02
2023-08-09T06:36:46.864Z,63.65
2023-08-09T06:39:14.603Z,63.34
2023-08-09T06:41:42.080Z,61.04
2023-08-09T06:44:09.520Z,61.13
2023-08-09T06:46:38.604Z,61.78
2023-08-09T06:49:06.097Z,61.16
2023-08-09T06:51:33.550Z,61.43
2023-08-09T06:54:01.220Z,61.10
2023-08-09T06:56:28.901Z,59.39
2023-08-09T06:58:56.702Z,59.63
2023-08-09T07:01:24.433Z,59.62
2023-08-09T07:03:52.069Z,59.75
2023-08-09T07:06:19.836Z,58.01
2023-08-09T07:08:47.608Z,57.64
2023-08-09T07:11:15.879Z,56.77
2023-08-09T07:13:43.337Z,53.67
2023-08-09T07:16:11.019Z,52.35
2023-08-09T07:18:38.692Z,51.63
2023-08-09T07:21:06.214Z,52.26
2023-08-09T07:23:47.292Z,52.87
2023-08-09T07:26:21.330Z,52.98
2023-08-09T07:28:49.093Z,52.10
2023-08-09T07:31:21.837Z,51.11
2023-08-09T07:33:50.231Z,50.21
2023-08-09T07:36:18.221Z,49.51
2023-08-09T07:38:45.677Z,49.64
2023-08-09T07:41:13.801Z,48.42
2023-08-09T07:43:41.254Z,46.51
2023-08-09T07:46:08.795Z,48.12
2023-08-09T07:48:36.559Z,46.87
2023-08-09T07:51:04.256Z,45.63
2023-08-09T07:53:31.976Z,45.70
2023-08-09T07:55:59.708Z,45.73
2023-08-09T07:58:27.183Z,45.17
2023-08-09T08:00:54.636Z,44.90
2023-08-09T08:03:22.328Z,44.33
2023-08-09T08:05:51.242Z,44.85
2023-08-09T08:08:21.220Z,44.39
2023-08-09T08:10:49.007Z,44.93
2023-08-09T08:13:16.823Z,44.81
2023-08-09T08:15:44.732Z,44.57
2023-08-09T08:18:12.900Z,45.77
2023-08-09T08:20:40.304Z,45.36
2023-08-09T08:23:07.872Z,45.35
2023-08-09T08:25:35.681Z,45.47
2023-08-09T08:28:03.289Z,45.83
2023-08-09T08:30:30.860Z,45.90
2023-08-09T08:32:58.654Z,45.46
2023-08-09T08:35:34.998Z,46.97
2023-08-09T08:38:03.684Z,47.49
2023-08-09T08:40:32.437Z,45.74
2023-08-09T08:43:00.457Z,47.01
2023-08-09T08:45:28.229Z,47.23
2023-08-09T08:47:55.674Z,45.94
2023-08-09T08:50:26.401Z,45.42
2023-08-09T08:52:54.690Z,45.34
2023-08-09T08:55:23.255Z,46.93
2023-08-09T08:57:50.689Z,46.43
2023-08-09T09:02:49.272Z,46.15
2023-08-09T09:05:17.990Z,44.68
2023-08-09T09:07:47.763Z,45.68
2023-08-09T09:10:15.262Z,44.49
2023-08-09T09:12:43.157Z,45.17
2023-08-09T09:15:11.037Z,45.41
2023-08-09T09:17:43.303Z,45.23
2023-08-09T09:20:40.765Z,45.63
2023-08-09T09:23:09.164Z,45.31
2023-08-09T09:25:36.921Z,45.95
2023-08-09T09:28:04.659Z,45.94
2023-08-09T09:30:33.504Z,44.44
2023-08-09T09:33:04.435Z,45.30
2023-08-09T09:35:33.608Z,45.45
2023-08-09T09:38:05.224Z,45.53
2023-08-09T09:40:36.198Z,45.75
2023-08-09T09:43:05.721Z,46.05
2023-08-09T09:45:34.294Z,45.28
2023-08-09T09:48:03.320Z,45.29
2023-08-09T09:50:33.111Z,44.74
2023-08-09T09:53:01.075Z,43.43
2023-08-09T09:55:30.128Z,43.67
2023-08-09T09:57:59.290Z,40.64
2023-08-09T10:00:28.902Z,42.63
2023-08-09T10:02:57.852Z,42.25
2023-08-09T10:05:44.722Z,39.75
2023-08-09T10:08:15.295Z,40.65
2023-08-09T10:10:44.953Z,38.54
2023-08-09T10:13:17.277Z,40.22
2023-08-09T10:15:48.501Z,40.43
2023-08-09T10:18:30.384Z,39.66
2023-08-09T10:20:59.751Z,37.96
2023-08-09T10:23:30.218Z,39.06
2023-08-09T10:25:58.141Z,38.21
2023-08-09T10:28:45.675Z,39.32
2023-08-09T10:31:19.278Z,36.64
2023-08-09T10:34:11.692Z,36.91
2023-08-09T10:36:39.476Z,38.75
2023-08-09T10:39:15.754Z,36.88
2023-08-09T10:42:06.467Z,36.92
2023-08-09T10:44:34.296Z,36.76
2023-08-09T10:47:04.922Z,37.73
2023-08-09T10:49:45.965Z,37.56
2023-08-09T10:52:19.239Z,38.46
2023-08-09T10:55:27.550Z,39.15
2023-08-09T10:57:57.219Z,37.35
2023-08-09T11:00:25.939Z,37.61
2023-08-09T11:02:58.174Z,37.36
2023-08-09T11:05:28.563Z,36.98
2023-08-09T11:07:58.202Z,37.72
2023-08-09T11:10:38.878Z,37.51
2023-08-09T11:13:10.589Z,37.30
2023-08-09T11:15:39.182Z,36.62
2023-08-09T11:18:07.451Z,35.78
2023-08-09T11:20:35.592Z,35.50
2023-08-09T11:23:04.807Z,36.39
2023-08-09T11:25:33.474Z,37.13
2023-08-09T11:28:04.974Z,36.39
2023-08-09T11:30:33.953Z,36.39
2023-08-09T11:33:06.713Z,36.47
2023-08-09T11:35:46.487Z,36.37
2023-08-09T11:38:16.577Z,36.03
2023-08-09T11:40:52.925Z,36.26
2023-08-09T11:43:21.877Z,35.69
2023-08-09T11:45:56.529Z,36.44
2023-08-09T11:48:32.804Z,35.97
2023-08-09T11:51:23.850Z,36.30
2023-08-09T11:53:51.976Z,36.55
2023-08-09T11:56:21.391Z,36.19
2023-08-09T11:58:57.014Z,36.29
2023-08-09T12:01:29.482Z,35.79
2023-08-09T12:03:59.511Z,35.72
2023-08-09T12:06:43.844Z,35.88
2023-08-09T12:09:27.920Z,35.46
2023-08-09T12:11:55.653Z,36.57
2023-08-09T12:14:23.789Z,35.67
2023-08-09T12:16:51.333Z,35.81
2023-08-09T12:19:18.794Z,36.09
2023-08-09T12:21:46.550Z,36.02
2023-08-09T12:24:15.002Z,36.36
2023-08-09T12:26:43.040Z,37.39
2023-08-09T12:29:11.033Z,36.99
2023-08-09T12:31:39.406Z,36.07
2023-08-09T12:34:09.363Z,35.82
2023-08-09T12:36:37.115Z,36.33
2023-08-09T12:39:05.162Z,36.74
2023-08-09T12:41:32.586Z,36.27
2023-08-09T12:44:00.262Z,37.00
2023-08-09T12:46:28.052Z,37.10
2023-08-09T12:48:55.582Z,37.19
2023-08-09T12:51:23.568Z,36.24
2023-08-09T12:53:51.050Z,36.47
2023-08-09T12:56:18.775Z,37.94
2023-08-09T12:58:46.588Z,38.20
2023-08-09T13:01:15.469Z,37.70
2023-08-09T13:03:42.989Z,37.50
2023-08-09T13:06:11.528Z,35.88
2023-08-09T13:08:38.986Z,37.12
2023-08-09T13:11:06.612Z,35.91
2023-08-09T13:13:34.440Z,36.58
2023-08-09T13:16:03.343Z,36.68
2023-08-09T13:18:31.284Z,37.68
2023-08-09T13:20:59.396Z,37.39
2023-08-09T13:23:26.829Z,37.12
2023-08-09T13:25:55.124Z,36.20
2023-08-09T13:28:23.081Z,36.66
2023-08-09T13:30:50.626Z,36.99
2023-08-09T13:33:18.309Z,36.67
2023-08-09T13:35:46.622Z,37.48
2023-08-09T13:38:32.932Z,37.69
2023-08-09T13:41:00.982Z,35.94
2023-08-09T13:43:28.678Z,35.93
2023-08-09T13:45:56.193Z,36.28
2023-08-09T13:48:24.149Z,37.61
2023-08-09T13:50:51.921Z,36.90
2023-08-09T13:53:19.650Z,36.53
2023-08-09T13:55:47.721Z,37.94
2023-08-09T13:58:16.560Z,38.36
2023-08-09T14:00:44.058Z,39.13
2023-08-09T14:03:12.526Z,39.57
2023-08-09T14:05:40.154Z,39.81
2023-08-09T14:08:08.789Z,40.08
2023-08-09T14:10:36.524Z,40.03
2023-08-09T14:13:04.110Z,38.50
2023-08-09T14:15:31.931Z,39.21
2023-08-09T14:18:00.099Z,39.43
2023-08-09T14:20:27.845Z,39.91
2023-08-09T14:22:55.431Z,39.31
2023-08-09T14:25:27.236Z,38.83
2023-08-09T14:27:54.794Z,38.58
2023-08-09T14:30:22.577Z,38.95
2023-08-09T14:32:51.015Z,38.28
2023-08-09T14:35:21.338Z,38.64
2023-08-09T14:37:49.310Z,37.94
2023-08-09T14:40:17.219Z,38.24
2023-08-09T14:42:45.169Z,37.67
2023-08-09T14:45:13.237Z,38.29
2023-08-09T14:47:41.696Z,37.78
2023-08-09T14:50:10.101Z,38.23
2023-08-09T14:52:38.434Z,37.91
2023-08-09T14:55:08.985Z,36.38
2023-08-09T14:57:37.756Z,36.71
2023-08-09T15:00:11.052Z,38.60
2023-08-09T15:02:41.121Z,37.27
2023-08-09T15:05:10.601Z,37.20
2023-08-09T15:07:38.318Z,37.31
2023-08-09T15:10:07.341Z,36.95
2023-08-09T15:12:35.992Z,37.72
2023-08-09T15:15:05.651Z,37.53
2023-08-09T15:17:34.809Z,36.81
2023-08-09T15:20:03.529Z,37.22
2023-08-09T15:22:31.140Z,37.75
2023-08-09T15:25:00.945Z,36.16
2023-08-09T15:27:28.905Z,36.92
2023-08-09T15:29:57.363Z,38.09
2023-08-09T15:32:25.268Z,37.53
2023-08-09T15:34:53.151Z,37.79
2023-08-09T15:37:20.796Z,38.92
2023-08-09T15:39:48.713Z,39.82
2023-08-09T15:42:18.765Z,38.79
2023-08-09T15:44:49.410Z,39.22
2023-08-09T15:47:19.772Z,40.25
2023-08-09T15:49:48.925Z,41.28
2023-08-09T15:52:19.465Z,41.08
2023-08-09T15:54:47.319Z,41.73
2023-08-09T15:57:15.567Z,41.88
2023-08-09T15:59:46.790Z,42.77
2023-08-09T16:02:15.388Z,42.11
2023-08-09T16:04:43.825Z,42.08
2023-08-09T16:07:13.141Z,43.27
2023-08-09T16:09:41.334Z,42.58
2023-08-09T16:12:11.913Z,42.54
2023-08-09T16:14:40.398Z,42.56
2023-08-09T16:17:09.117Z,42.96
2023-08-09T16:19:37.952Z,43.35
2023-08-09T16:22:06.165Z,43.98
2023-08-09T16:24:33.949Z,44.54
2023-08-09T16:27:02.529Z,43.48
2023-08-09T16:29:30.275Z,43.84
2023-08-09T16:31:57.804Z,43.89
2023-08-09T16:34:25.782Z,43.82
2023-08-09T16:36:53.443Z,43.86
2023-08-09T16:39:21.431Z,44.73
2023-08-09T16:41:49.192Z,45.50
2023-08-09T16:44:16.675Z,45.03
2023-08-09T16:46:44.414Z,44.55
2023-08-09T16:49:12.378Z,43.98
2023-08-09T16:51:39.922Z,43.68
2023-08-09T16:54:08.102Z,45.53
2023-08-09T16:56:36.677Z,46.93
2023-08-09T16:59:04.577Z,47.88
2023-08-09T17:01:32.483Z,49.89
2023-08-09T17:04:00.491Z,50.82
2023-08-09T17:06:29.018Z,51.05
2023-08-09T17:08:56.741Z,51.34
2023-08-09T17:11:25.224Z,51.88
2023-08-09T17:13:54.451Z,52.92
2023-08-09T17:16:22.273Z,53.80
2023-08-09T17:18:51.310Z,54.64
2023-08-09T17:21:19.565Z,54.24
2023-08-09T17:23:48.217Z,54.65
2023-08-09T17:26:16.376Z,55.48
2023-08-09T17:28:44.348Z,55.84
2023-08-09T17:31:12.798Z,55.19
2023-08-09T17:33:41.605Z,56.72
2023-08-09T17:36:12.652Z,56.12
2023-08-09T17:38:42.639Z,56.96
2023-08-09T17:41:10.754Z,56.18
2023-08-09T17:43:40.385Z,56.73
2023-08-09T17:46:08.583Z,56.00
2023-08-09T17:48:36.789Z,56.66
2023-08-09T17:51:06.661Z,55.92
2023-08-09T17:53:35.905Z,56.88
2023-08-09T17:56:04.828Z,56.53
2023-08-09T17:58:32.549Z,56.32
2023-08-09T18:01:00.879Z,56.43
2023-08-09T18:03:28.821Z,56.45
2023-08-09T18:05:56.940Z,56.43
2023-08-09T18:08:26.506Z,56.86
2023-08-09T18:10:56.874Z,56.50
2023-08-09T18:13:25.328Z,56.21
2023-08-09T18:15:53.288Z,57.10
2023-08-09T18:18:22.296Z,57.25
2023-08-09T18:20:51.710Z,55.25
2023-08-09T18:23:25.912Z,56.11
2023-08-09T18:25:57.431Z,56.87
2023-08-09T18:28:26.631Z,57.14
2023-08-09T18:30:54.354Z,57.51
2023-08-09T18:33:23.378Z,57.53
2023-08-09T18:35:53.599Z,56.54
2023-08-09T18:38:23.363Z,57.44
2023-08-09T18:40:53.434Z,57.19
2023-08-09T18:43:23.152Z,57.42
2023-08-09T18:45:51.557Z,58.42
2023-08-09T18:48:19.902Z,58.89
2023-08-09T18:50:49.310Z,59.48
2023-08-09T18:53:18.785Z,59.79
2023-08-09T18:55:48.244Z,59.82
2023-08-09T18:58:17.240Z,59.74
2023-08-09T19:00:46.327Z,59.53
2023-08-09T19:03:14.617Z,60.01
2023-08-09T19:05:44.077Z,59.34
2023-08-09T19:08:12.732Z,59.06
2023-08-09T19:10:43.159Z,59.82
2023-08-09T19:13:11.684Z,58.84
2023-08-09T19:15:41.272Z,58.89
2023-08-09T19:18:09.409Z,59.76
2023-08-09T19:20:37.761Z,59.46
2023-08-09T19:23:07.542Z,60.13
2023-08-09T19:25:36.246Z,60.81
2023-08-09T19:28:05.879Z,61.68
2023-08-09T19:30:35.712Z,60.53
2023-08-09T19:33:05.092Z,60.96
2023-08-09T19:35:35.436Z,60.78
2023-08-09T19:38:05.554Z,61.52
2023-08-09T19:40:34.098Z,62.55
2023-08-09T19:43:02.906Z,62.07
2023-08-09T19:45:31.424Z,62.37
2023-08-09T19:48:01.490Z,61.50
2023-08-09T19:50:29.913Z,61.30
2023-08-09T19:52:58.093Z,61.79
2023-08-09T19:55:26.442Z,62.19
2023-08-09T19:57:54.760Z,62.40
2023-08-09T20:00:28.715Z,62.21
2023-08-09T20:02:57.352Z,63.72
2023-08-09T20:05:26.104Z,63.87
2023-08-09T20:07:54.955Z,65.43
2023-08-09T20:10:23.372Z,66.27
2023-08-09T20:12:51.592Z,65.95
2023-08-09T20:15:21.176Z,66.40
2023-08-09T20:17:49.480Z,65.90
2023-08-09T20:20:24.292Z,67.58
2023-08-09T20:22:54.096Z,66.15
2023-08-09T20:25:22.975Z,67.10
2023-08-09T20:27:52.425Z,67.30
2023-08-09T20:30:20.923Z,67.26
2023-08-09T20:32:49.021Z,67.70
2023-08-09T20:35:17.014Z,67.05
2023-08-09T20:37:44.688Z,67.07
2023-08-09T20:40:13.122Z,66.81
2023-08-09T20:42:42.251Z,67.02
2023-08-09T20:45:11.460Z,67.16
2023-08-09T20:47:41.344Z,68.42
2023-08-09T20:50:09.623Z,67.87
2023-08-09T20:52:39.536Z,67.90
2023-08-09T20:55:08.501Z,67.94
2023-08-09T20:57:36.303Z,68.70
2023-08-09T21:00:05.663Z,68.96
2023-08-09T21:02:33.420Z,68.58
2023-08-09T21:05:00.834Z,69.60
2023-08-09T21:07:28.253Z,68.85
2023-08-09T21:09:56.422Z,69.28
2023-08-09T21:12:23.801Z,69.24
2023-08-09T21:14:51.235Z,70.03
2023-08-09T21:17:18.860Z,69.42
2023-08-09T21:19:46.273Z,70.74
2023-08-09T21:22:15.306Z,70.79
2023-08-09T21:27:31.760Z,70.09
2023-08-09T21:30:00.700Z,69.24
2023-08-09T21:32:28.322Z,69.22
2023-08-09T21:34:55.792Z,69.55
2023-08-09T21:37:23.564Z,69.25
2023-08-09T21:39:51.131Z,68.98
2023-08-09T21:42:18.591Z,69.21
2023-08-09T21:44:46.377Z,69.02
2023-08-09T21:47:13.811Z,69.25
2023-08-09T21:49:44.549Z,70.11
2023-08-09T21:52:12.242Z,69.36
2023-08-09T21:54:39.661Z,68.42
2023-08-09T21:57:07.132Z,69.28
2023-08-09T21:59:34.869Z,68.86
2023-08-09T22:02:17.885Z,67.98
2023-08-09T22:04:54.491Z,69.17
2023-08-09T22:07:21.929Z,69.76
2023-08-09T22:09:49.336Z,71.56
2023-08-09T22:12:17.003Z,69.83
2023-08-09T22:14:44.386Z,70.09
2023-08-09T22:17:11.908Z,69.46
2023-08-09T22:19:39.700Z,70.97
2023-08-09T22:24:37.462Z,70.88
2023-08-09T22:27:05.175Z,70.15
2023-08-09T22:29:32.720Z,70.66
2023-08-09T22:32:00.544Z,70.46
2023-08-09T22:34:28.277Z,71.37
2023-08-09T22:36:56.156Z,71.16
2023-08-09T22:39:23.827Z,70.28
2023-08-09T22:41:51.624Z,70.32
2023-08-09T22:44:19.001Z,70.82
2023-08-09T22:46:46.616Z,69.72
2023-08-09T22:49:14.367Z,69.52
2023-08-09T22:51:43.076Z,69.44
2023-08-09T22:54:10.924Z,69.52
2023-08-09T22:56:38.670Z,68.97
2023-08-09T22:59:06.355Z,69.22
2023-08-09T23:01:34.934Z,70.08
2023-08-09T23:04:03.134Z,70.17
2023-08-09T23:06:30.579Z,68.97
2023-08-09T23:08:58.089Z,69.26
2023-08-09T23:11:26.224Z,68.51
2023-08-09T23:13:53.632Z,68.97
2023-08-09T23:16:21.007Z,69.04
2023-08-09T23:18:48.877Z,69.92
2023-08-09T23:21:16.370Z,69.94
2023-08-09T23:23:43.786Z,68.03
2023-08-09T23:26:12.634Z,68.69
2023-08-09T23:28:40.062Z,68.82
2023-08-09T23:31:07.500Z,68.99
2023-08-09T23:33:35.317Z,67.83
2023-08-09T23:36:03.849Z,66.54
2023-08-09T23:38:31.228Z,66.48
2023-08-09T23:40:58.999Z,66.59
2023-08-09T23:43:26.410Z,66.17
2023-08-09T23:45:53.825Z,66.21
2023-08-09T23:48:21.480Z,66.81
2023-08-09T23:50:49.244Z,67.23
2023-08-09T23:53:16.681Z,68.88
2023-08-09T23:55:44.355Z,66.53
2023-08-09T23:58:11.750Z,67.41
